sensor_id;sensor_type;location;lat;lon;timestamp;temperature;humidity
1277;DHT22;631;51.024;13.826;2023-03-31T00:00:19;10.90;99.90
1277;DHT22;631;51.024;13.826;2023-03-31T00:02:44;10.90;99.90
1277;DHT22;631;51.024;13.826;2023-03-31T00:05:10;10.90;99.90
1277;DHT22;631;51.024;13.826;2023-03-31T00:07:36;11.00;99.90
1277;DHT22;631;51.024;13.826;2023-03-31T00:10:05;11.00;99.90
1277;DHT22;631;51.024;13.826;2023-03-31T00:12:31;11.00;99.90
1277;DHT22;631;51.024;13.826;2023-03-31T00:14:56;11.10;99.90
1277;DHT22;631;51.024;13.826;2023-03-31T00:17:22;11.20;99.90
1277;DHT22;631;51.024;13.826;2023-03-31T00:19:47;11.20;99.90
1277;DHT22;631;51.024;13.826;2023-03-31T00:22:15;11.20;99.90
1277;DHT22;631;51.024;13.826;2023-03-31T00:24:43;11.20;99.90
1277;DHT22;631;51.024;13.826;2023-03-31T00:27:09;11.10;99.90
1277;DHT22;631;51.024;13.826;2023-03-31T00:29:36;11.10;99.90
1277;DHT22;631;51.024;13.826;2023-03-31T00:32:06;11.10;99.90
1277;DHT22;631;51.024;13.826;2023-03-31T00:34:31;11.10;99.90
1277;DHT22;631;51.024;13.826;2023-03-31T00:36:57;11.00;99.90
1277;DHT22;631;51.024;13.826;2023-03-31T00:39:28;11.00;99.90
1277;DHT22;631;51.024;13.826;2023-03-31T00:41:57;11.00;99.90
1277;DHT22;631;51.024;13.826;2023-03-31T00:44:23;11.10;99.90
1277;DHT22;631;51.024;13.826;2023-03-31T00:46:57;11.00;99.90
1277;DHT22;631;51.024;13.826;2023-03-31T00:49:49;11.10;99.90
1277;DHT22;631;51.024;13.826;2023-03-31T00:52:25;11.20;99.90
1277;DHT22;631;51.024;13.826;2023-03-31T00:54:58;11.20;99.90
1277;DHT22;631;51.024;13.826;2023-03-31T00:57:26;11.30;99.90
1277;DHT22;631;51.024;13.826;2023-03-31T00:59:57;11.30;99.90
1277;DHT22;631;51.024;13.826;2023-03-31T01:02:23;11.30;99.90
1277;DHT22;631;51.024;13.826;2023-03-31T01:04:55;11.30;99.90
1277;DHT22;631;51.024;13.826;2023-03-31T01:07:34;11.30;99.90
1277;DHT22;631;51.024;13.826;2023-03-31T01:10:03;11.30;99.90
1277;DHT22;631;51.024;13.826;2023-03-31T01:12:32;11.30;99.90
1277;DHT22;631;51.024;13.826;2023-03-31T01:14:59;11.20;99.90
1277;DHT22;631;51.024;13.826;2023-03-31T01:17:25;11.20;99.90
1277;DHT22;631;51.024;13.826;2023-03-31T01:28:46;11.00;99.90
1277;DHT22;631;51.024;13.826;2023-03-31T01:48:21;10.40;99.90
1277;DHT22;631;51.024;13.826;2023-03-31T01:50:54;10.40;99.90
1277;DHT22;631;51.024;13.826;2023-03-31T01:56:11;10.30;99.90
1277;DHT22;631;51.024;13.826;2023-03-31T01:58:39;10.20;99.90
1277;DHT22;631;51.024;13.826;2023-03-31T02:01:15;10.20;99.90
1277;DHT22;631;51.024;13.826;2023-03-31T02:03:48;10.10;99.90
1277;DHT22;631;51.024;13.826;2023-03-31T02:06:24;10.00;99.90
1277;DHT22;631;51.024;13.826;2023-03-31T02:08:56;9.90;99.90
1277;DHT22;631;51.024;13.826;2023-03-31T02:11:23;9.90;99.90
1277;DHT22;631;51.024;13.826;2023-03-31T02:13:52;9.80;99.90
1277;DHT22;631;51.024;13.826;2023-03-31T02:16:25;9.80;99.90
1277;DHT22;631;51.024;13.826;2023-03-31T02:18:54;9.80;99.90
1277;DHT22;631;51.024;13.826;2023-03-31T02:21:31;9.80;99.90
1277;DHT22;631;51.024;13.826;2023-03-31T02:24:03;9.70;99.90
1277;DHT22;631;51.024;13.826;2023-03-31T02:26:35;9.70;99.90
1277;DHT22;631;51.024;13.826;2023-03-31T02:29:01;9.70;99.90
1277;DHT22;631;51.024;13.826;2023-03-31T02:31:47;9.60;99.90
1277;DHT22;631;51.024;13.826;2023-03-31T02:34:14;9.70;99.90
1277;DHT22;631;51.024;13.826;2023-03-31T02:36:41;9.70;99.90
1277;DHT22;631;51.024;13.826;2023-03-31T02:39:15;9.70;99.90
1277;DHT22;631;51.024;13.826;2023-03-31T02:41:42;9.80;99.90
1277;DHT22;631;51.024;13.826;2023-03-31T02:44:09;9.80;99.90
1277;DHT22;631;51.024;13.826;2023-03-31T02:46:35;9.80;99.90
1277;DHT22;631;51.024;13.826;2023-03-31T02:49:04;9.80;99.90
1277;DHT22;631;51.024;13.826;2023-03-31T02:51:59;9.90;99.90
1277;DHT22;631;51.024;13.826;2023-03-31T03:08:36;9.50;99.90
1277;DHT22;631;51.024;13.826;2023-03-31T03:17:09;9.40;99.90
1277;DHT22;631;51.024;13.826;2023-03-31T03:19:36;9.40;99.90
1277;DHT22;631;51.024;13.826;2023-03-31T03:22:02;9.40;99.90
1277;DHT22;631;51.024;13.826;2023-03-31T03:24:27;9.40;99.90
1277;DHT22;631;51.024;13.826;2023-03-31T03:26:54;9.50;99.90
1277;DHT22;631;51.024;13.826;2023-03-31T03:29:20;9.50;99.90
1277;DHT22;631;51.024;13.826;2023-03-31T03:31:46;9.60;99.90
1277;DHT22;631;51.024;13.826;2023-03-31T03:34:12;9.70;99.90
1277;DHT22;631;51.024;13.826;2023-03-31T03:36:38;9.70;99.90
1277;DHT22;631;51.024;13.826;2023-03-31T03:39:05;9.80;99.90
1277;DHT22;631;51.024;13.826;2023-03-31T03:41:32;9.80;99.90
1277;DHT22;631;51.024;13.826;2023-03-31T03:43:58;9.70;99.90
1277;DHT22;631;51.024;13.826;2023-03-31T03:46:24;9.80;99.90
1277;DHT22;631;51.024;13.826;2023-03-31T03:48:50;9.70;99.90
1277;DHT22;631;51.024;13.826;2023-03-31T03:51:16;9.70;99.90
1277;DHT22;631;51.024;13.826;2023-03-31T03:53:41;9.80;99.90
1277;DHT22;631;51.024;13.826;2023-03-31T03:56:07;9.80;99.90
1277;DHT22;631;51.024;13.826;2023-03-31T03:58:33;9.80;99.90
1277;DHT22;631;51.024;13.826;2023-03-31T04:00:58;9.90;99.90
1277;DHT22;631;51.024;13.826;2023-03-31T04:03:24;9.90;99.90
1277;DHT22;631;51.024;13.826;2023-03-31T04:05:50;10.00;99.90
1277;DHT22;631;51.024;13.826;2023-03-31T04:08:17;10.00;99.90
1277;DHT22;631;51.024;13.826;2023-03-31T04:10:44;10.00;99.90
1277;DHT22;631;51.024;13.826;2023-03-31T04:13:10;10.10;99.90
1277;DHT22;631;51.024;13.826;2023-03-31T04:15:36;10.10;99.90
1277;DHT22;631;51.024;13.826;2023-03-31T04:18:01;10.10;99.90
1277;DHT22;631;51.024;13.826;2023-03-31T04:20:27;10.20;99.90
1277;DHT22;631;51.024;13.826;2023-03-31T04:22:54;10.20;99.90
1277;DHT22;631;51.024;13.826;2023-03-31T04:25:20;10.20;99.90
1277;DHT22;631;51.024;13.826;2023-03-31T04:27:51;10.20;99.90
1277;DHT22;631;51.024;13.826;2023-03-31T04:30:24;10.20;99.90
1277;DHT22;631;51.024;13.826;2023-03-31T04:32:57;10.20;99.90
1277;DHT22;631;51.024;13.826;2023-03-31T04:35:25;10.20;99.90
1277;DHT22;631;51.024;13.826;2023-03-31T04:37:52;10.20;99.90
1277;DHT22;631;51.024;13.826;2023-03-31T04:40:24;10.20;99.90
1277;DHT22;631;51.024;13.826;2023-03-31T04:42:50;10.20;99.90
1277;DHT22;631;51.024;13.826;2023-03-31T04:45:16;10.20;99.90
1277;DHT22;631;51.024;13.826;2023-03-31T04:47:42;10.20;99.90
1277;DHT22;631;51.024;13.826;2023-03-31T04:50:09;10.20;99.90
1277;DHT22;631;51.024;13.826;2023-03-31T04:52:37;10.20;99.90
1277;DHT22;631;51.024;13.826;2023-03-31T04:55:04;10.30;99.90
1277;DHT22;631;51.024;13.826;2023-03-31T04:57:30;10.30;99.90
1277;DHT22;631;51.024;13.826;2023-03-31T04:59:56;10.30;99.90
1277;DHT22;631;51.024;13.826;2023-03-31T05:02:21;10.40;99.90
1277;DHT22;631;51.024;13.826;2023-03-31T05:04:50;10.50;99.90
1277;DHT22;631;51.024;13.826;2023-03-31T05:07:16;10.50;99.90
1277;DHT22;631;51.024;13.826;2023-03-31T05:09:42;10.60;99.90
1277;DHT22;631;51.024;13.826;2023-03-31T05:12:08;10.60;99.90
1277;DHT22;631;51.024;13.826;2023-03-31T05:14:33;10.70;99.90
1277;DHT22;631;51.024;13.826;2023-03-31T05:16:59;10.70;99.90
1277;DHT22;631;51.024;13.826;2023-03-31T05:19:25;10.70;99.90
1277;DHT22;631;51.024;13.826;2023-03-31T05:21:51;10.70;99.90
1277;DHT22;631;51.024;13.826;2023-03-31T05:24:16;10.80;99.90
1277;DHT22;631;51.024;13.826;2023-03-31T05:26:42;10.80;99.90
1277;DHT22;631;51.024;13.826;2023-03-31T05:29:12;10.80;99.90
1277;DHT22;631;51.024;13.826;2023-03-31T05:31:38;10.80;99.90
1277;DHT22;631;51.024;13.826;2023-03-31T05:34:04;10.70;99.90
1277;DHT22;631;51.024;13.826;2023-03-31T05:36:30;10.70;99.90
1277;DHT22;631;51.024;13.826;2023-03-31T05:38:56;10.70;99.90
1277;DHT22;631;51.024;13.826;2023-03-31T05:41:22;10.70;99.90
1277;DHT22;631;51.024;13.826;2023-03-31T05:43:47;10.60;99.90
1277;DHT22;631;51.024;13.826;2023-03-31T05:46:13;10.70;99.90
1277;DHT22;631;51.024;13.826;2023-03-31T05:48:39;10.80;99.90
1277;DHT22;631;51.024;13.826;2023-03-31T05:51:05;10.80;99.90
1277;DHT22;631;51.024;13.826;2023-03-31T05:53:31;10.90;99.90
1277;DHT22;631;51.024;13.826;2023-03-31T05:55:58;11.00;99.90
1277;DHT22;631;51.024;13.826;2023-03-31T05:58:24;11.10;99.90
1277;DHT22;631;51.024;13.826;2023-03-31T06:00:50;11.10;99.90
1277;DHT22;631;51.024;13.826;2023-03-31T06:03:18;11.20;99.90
1277;DHT22;631;51.024;13.826;2023-03-31T06:05:47;11.40;99.90
1277;DHT22;631;51.024;13.826;2023-03-31T06:08:13;11.40;99.90
1277;DHT22;631;51.024;13.826;2023-03-31T06:10:39;11.50;99.90
1277;DHT22;631;51.024;13.826;2023-03-31T06:13:05;11.60;99.90
1277;DHT22;631;51.024;13.826;2023-03-31T06:15:31;11.70;99.90
1277;DHT22;631;51.024;13.826;2023-03-31T06:17:56;11.80;99.90
1277;DHT22;631;51.024;13.826;2023-03-31T06:20:22;11.90;99.90
1277;DHT22;631;51.024;13.826;2023-03-31T06:22:48;12.10;99.90
1277;DHT22;631;51.024;13.826;2023-03-31T06:25:13;12.20;99.90
1277;DHT22;631;51.024;13.826;2023-03-31T06:27:39;12.20;99.90
1277;DHT22;631;51.024;13.826;2023-03-31T06:30:05;12.20;99.90
1277;DHT22;631;51.024;13.826;2023-03-31T06:32:31;12.30;99.90
1277;DHT22;631;51.024;13.826;2023-03-31T06:34:57;12.40;99.90
1277;DHT22;631;51.024;13.826;2023-03-31T06:37:22;12.50;99.90
1277;DHT22;631;51.024;13.826;2023-03-31T06:39:48;12.70;99.90
1277;DHT22;631;51.024;13.826;2023-03-31T06:42:15;12.80;99.90
1277;DHT22;631;51.024;13.826;2023-03-31T06:44:41;12.90;99.90
1277;DHT22;631;51.024;13.826;2023-03-31T06:47:07;13.00;99.90
1277;DHT22;631;51.024;13.826;2023-03-31T06:49:32;13.10;99.90
1277;DHT22;631;51.024;13.826;2023-03-31T06:51:58;13.20;99.90
1277;DHT22;631;51.024;13.826;2023-03-31T06:54:23;13.20;99.90
1277;DHT22;631;51.024;13.826;2023-03-31T06:56:49;13.10;99.90
1277;DHT22;631;51.024;13.826;2023-03-31T06:59:15;13.20;99.90
1277;DHT22;631;51.024;13.826;2023-03-31T07:01:40;13.40;99.90
1277;DHT22;631;51.024;13.826;2023-03-31T07:04:07;13.50;99.90
1277;DHT22;631;51.024;13.826;2023-03-31T07:06:33;13.60;99.90
1277;DHT22;631;51.024;13.826;2023-03-31T07:08:59;13.70;99.90
1277;DHT22;631;51.024;13.826;2023-03-31T07:11:25;13.80;99.90
1277;DHT22;631;51.024;13.826;2023-03-31T07:13:50;13.90;99.90
1277;DHT22;631;51.024;13.826;2023-03-31T07:16:16;13.80;99.90
1277;DHT22;631;51.024;13.826;2023-03-31T07:18:41;13.90;99.90
1277;DHT22;631;51.024;13.826;2023-03-31T07:21:07;13.90;99.90
1277;DHT22;631;51.024;13.826;2023-03-31T07:23:34;13.80;99.90
1277;DHT22;631;51.024;13.826;2023-03-31T07:26:00;13.80;99.90
1277;DHT22;631;51.024;13.826;2023-03-31T07:28:28;13.70;99.90
1277;DHT22;631;51.024;13.826;2023-03-31T07:30:53;13.60;99.90
1277;DHT22;631;51.024;13.826;2023-03-31T07:33:19;13.60;99.90
1277;DHT22;631;51.024;13.826;2023-03-31T07:35:45;13.70;99.90
1277;DHT22;631;51.024;13.826;2023-03-31T07:38:11;13.60;99.90
1277;DHT22;631;51.024;13.826;2023-03-31T07:40:38;13.80;99.90
1277;DHT22;631;51.024;13.826;2023-03-31T07:43:04;13.90;99.90
1277;DHT22;631;51.024;13.826;2023-03-31T07:45:30;14.10;99.90
1277;DHT22;631;51.024;13.826;2023-03-31T07:47:56;14.20;99.90
1277;DHT22;631;51.024;13.826;2023-03-31T07:50:22;14.50;99.90
1277;DHT22;631;51.024;13.826;2023-03-31T07:52:49;14.70;99.90
1277;DHT22;631;51.024;13.826;2023-03-31T07:55:15;14.80;99.90
1277;DHT22;631;51.024;13.826;2023-03-31T07:57:41;15.10;99.90
1277;DHT22;631;51.024;13.826;2023-03-31T08:00:09;15.20;99.90
1277;DHT22;631;51.024;13.826;2023-03-31T08:02:37;15.30;99.90
1277;DHT22;631;51.024;13.826;2023-03-31T08:05:04;15.40;99.90
1277;DHT22;631;51.024;13.826;2023-03-31T08:07:33;15.40;99.90
1277;DHT22;631;51.024;13.826;2023-03-31T08:09:58;15.40;99.90
1277;DHT22;631;51.024;13.826;2023-03-31T08:12:24;15.40;99.90
1277;DHT22;631;51.024;13.826;2023-03-31T08:14:50;15.30;99.90
1277;DHT22;631;51.024;13.826;2023-03-31T08:17:15;15.20;99.90
1277;DHT22;631;51.024;13.826;2023-03-31T08:19:41;15.20;99.90
1277;DHT22;631;51.024;13.826;2023-03-31T08:22:06;15.10;99.90
1277;DHT22;631;51.024;13.826;2023-03-31T08:24:32;14.90;99.90
1277;DHT22;631;51.024;13.826;2023-03-31T08:26:58;15.10;99.90
1277;DHT22;631;51.024;13.826;2023-03-31T08:29:23;15.10;99.90
1277;DHT22;631;51.024;13.826;2023-03-31T08:31:49;15.20;99.90
1277;DHT22;631;51.024;13.826;2023-03-31T08:34:14;15.20;99.90
1277;DHT22;631;51.024;13.826;2023-03-31T08:36:40;15.10;98.50
1277;DHT22;631;51.024;13.826;2023-03-31T08:39:05;15.20;98.50
1277;DHT22;631;51.024;13.826;2023-03-31T08:41:44;15.20;98.60
1277;DHT22;631;51.024;13.826;2023-03-31T08:46:43;15.10;98.00
1277;DHT22;631;51.024;13.826;2023-03-31T08:49:14;15.00;98.80
1277;DHT22;631;51.024;13.826;2023-03-31T08:51:45;15.00;98.90
1277;DHT22;631;51.024;13.826;2023-03-31T08:54:20;14.90;98.70
1277;DHT22;631;51.024;13.826;2023-03-31T08:56:49;14.80;98.60
1277;DHT22;631;51.024;13.826;2023-03-31T08:59:26;14.60;98.60
1277;DHT22;631;51.024;13.826;2023-03-31T09:18:28;14.10;99.90
1277;DHT22;631;51.024;13.826;2023-03-31T09:21:13;14.10;99.90
1277;DHT22;631;51.024;13.826;2023-03-31T09:24:22;14.10;99.90
1277;DHT22;631;51.024;13.826;2023-03-31T09:29:37;14.10;99.90
1277;DHT22;631;51.024;13.826;2023-03-31T09:32:26;14.10;99.90
1277;DHT22;631;51.024;13.826;2023-03-31T09:34:59;14.10;99.90
1277;DHT22;631;51.024;13.826;2023-03-31T09:37:29;14.00;99.90
1277;DHT22;631;51.024;13.826;2023-03-31T09:39:58;14.00;99.90
1277;DHT22;631;51.024;13.826;2023-03-31T09:42:24;14.00;99.90
1277;DHT22;631;51.024;13.826;2023-03-31T09:44:50;14.00;99.90
1277;DHT22;631;51.024;13.826;2023-03-31T09:47:24;14.00;99.90
1277;DHT22;631;51.024;13.826;2023-03-31T09:49:53;13.90;99.90
1277;DHT22;631;51.024;13.826;2023-03-31T09:52:31;14.00;99.90
1277;DHT22;631;51.024;13.826;2023-03-31T09:55:00;14.10;99.90
1277;DHT22;631;51.024;13.826;2023-03-31T09:57:32;14.20;99.90
1277;DHT22;631;51.024;13.826;2023-03-31T10:00:18;14.20;99.90
1277;DHT22;631;51.024;13.826;2023-03-31T10:02:52;14.20;99.90
1277;DHT22;631;51.024;13.826;2023-03-31T10:05:29;14.10;99.90
1277;DHT22;631;51.024;13.826;2023-03-31T10:11:15;14.10;99.90
1277;DHT22;631;51.024;13.826;2023-03-31T10:16:31;14.10;99.90
1277;DHT22;631;51.024;13.826;2023-03-31T10:19:16;14.10;99.90
1277;DHT22;631;51.024;13.826;2023-03-31T10:21:45;14.00;99.90
1277;DHT22;631;51.024;13.826;2023-03-31T10:24:13;14.00;99.90
1277;DHT22;631;51.024;13.826;2023-03-31T10:26:42;13.80;99.90
1277;DHT22;631;51.024;13.826;2023-03-31T10:29:12;13.80;99.90
1277;DHT22;631;51.024;13.826;2023-03-31T10:31:39;13.70;99.90
1277;DHT22;631;51.024;13.826;2023-03-31T10:34:07;13.60;99.90
1277;DHT22;631;51.024;13.826;2023-03-31T10:36:36;13.70;99.90
1277;DHT22;631;51.024;13.826;2023-03-31T10:39:06;13.70;99.90
1277;DHT22;631;51.024;13.826;2023-03-31T10:41:32;13.60;99.90
1277;DHT22;631;51.024;13.826;2023-03-31T10:43:59;13.60;99.90
1277;DHT22;631;51.024;13.826;2023-03-31T10:46:51;13.70;99.90
1277;DHT22;631;51.024;13.826;2023-03-31T10:51:54;13.70;99.90
1277;DHT22;631;51.024;13.826;2023-03-31T10:54:22;13.70;99.90
1277;DHT22;631;51.024;13.826;2023-03-31T10:56:58;13.80;99.90
1277;DHT22;631;51.024;13.826;2023-03-31T11:02:51;13.50;99.90
1277;DHT22;631;51.024;13.826;2023-03-31T11:08:09;13.60;99.90
1277;DHT22;631;51.024;13.826;2023-03-31T11:16:06;13.20;99.90
1277;DHT22;631;51.024;13.826;2023-03-31T11:43:42;12.50;99.90
1277;DHT22;631;51.024;13.826;2023-03-31T11:48:47;12.30;99.90
1277;DHT22;631;51.024;13.826;2023-03-31T11:51:20;12.30;99.90
1277;DHT22;631;51.024;13.826;2023-03-31T11:53:50;12.20;99.90
1277;DHT22;631;51.024;13.826;2023-03-31T11:56:18;12.10;99.90
1277;DHT22;631;51.024;13.826;2023-03-31T11:58:52;12.00;99.90
1277;DHT22;631;51.024;13.826;2023-03-31T12:01:28;11.90;99.90
1277;DHT22;631;51.024;13.826;2023-03-31T12:07:02;11.80;99.90
1277;DHT22;631;51.024;13.826;2023-03-31T12:09:34;11.80;99.90
1277;DHT22;631;51.024;13.826;2023-03-31T12:12:23;11.80;99.90
1277;DHT22;631;51.024;13.826;2023-03-31T12:14:56;11.80;99.90
1277;DHT22;631;51.024;13.826;2023-03-31T12:17:27;11.70;99.90
1277;DHT22;631;51.024;13.826;2023-03-31T12:19:54;11.60;99.90
1277;DHT22;631;51.024;13.826;2023-03-31T12:22:28;11.60;99.90
1277;DHT22;631;51.024;13.826;2023-03-31T12:24:55;11.50;99.90
1277;DHT22;631;51.024;13.826;2023-03-31T12:27:37;11.50;99.90
1277;DHT22;631;51.024;13.826;2023-03-31T12:32:55;11.40;99.90
1277;DHT22;631;51.024;13.826;2023-03-31T12:35:28;11.40;99.90
1277;DHT22;631;51.024;13.826;2023-03-31T12:38:34;11.40;99.90
1277;DHT22;631;51.024;13.826;2023-03-31T12:41:11;11.50;99.90
1277;DHT22;631;51.024;13.826;2023-03-31T12:52:58;11.60;99.90
1277;DHT22;631;51.024;13.826;2023-03-31T12:55:32;11.60;99.90
1277;DHT22;631;51.024;13.826;2023-03-31T13:09:03;11.60;99.90
1277;DHT22;631;51.024;13.826;2023-03-31T13:16:46;11.60;99.90
1277;DHT22;631;51.024;13.826;2023-03-31T13:19:32;11.60;99.90
1277;DHT22;631;51.024;13.826;2023-03-31T13:22:01;11.60;99.90
1277;DHT22;631;51.024;13.826;2023-03-31T13:24:29;11.60;99.90
1277;DHT22;631;51.024;13.826;2023-03-31T13:26:56;11.60;99.90
1277;DHT22;631;51.024;13.826;2023-03-31T13:29:41;11.70;99.90
1277;DHT22;631;51.024;13.826;2023-03-31T13:32:27;11.70;99.90
1277;DHT22;631;51.024;13.826;2023-03-31T13:34:54;11.80;99.90
1277;DHT22;631;51.024;13.826;2023-03-31T13:40:27;12.00;99.90
1277;DHT22;631;51.024;13.826;2023-03-31T13:43:19;12.20;99.90
1277;DHT22;631;51.024;13.826;2023-03-31T13:46:18;12.50;99.90
1277;DHT22;631;51.024;13.826;2023-03-31T13:49:12;12.90;99.90
1277;DHT22;631;51.024;13.826;2023-03-31T14:00:05;13.10;99.90
1277;DHT22;631;51.024;13.826;2023-03-31T14:06:03;13.00;99.90
1277;DHT22;631;51.024;13.826;2023-03-31T14:11:27;13.20;99.90
1277;DHT22;631;51.024;13.826;2023-03-31T14:14:11;13.20;99.90
1277;DHT22;631;51.024;13.826;2023-03-31T14:16:46;13.20;99.90
1277;DHT22;631;51.024;13.826;2023-03-31T14:24:37;13.20;99.90
1277;DHT22;631;51.024;13.826;2023-03-31T14:36:12;13.70;99.90
1277;DHT22;631;51.024;13.826;2023-03-31T14:38:41;14.40;99.90
1277;DHT22;631;51.024;13.826;2023-03-31T14:41:15;15.00;99.90
1277;DHT22;631;51.024;13.826;2023-03-31T14:43:47;15.30;99.90
1277;DHT22;631;51.024;13.826;2023-03-31T14:46:19;15.30;99.90
1277;DHT22;631;51.024;13.826;2023-03-31T14:48:47;15.30;99.90
1277;DHT22;631;51.024;13.826;2023-03-31T14:51:15;15.30;99.90
1277;DHT22;631;51.024;13.826;2023-03-31T14:53:41;15.30;99.90
1277;DHT22;631;51.024;13.826;2023-03-31T14:56:14;15.50;99.90
1277;DHT22;631;51.024;13.826;2023-03-31T14:58:48;15.90;99.90
1277;DHT22;631;51.024;13.826;2023-03-31T15:01:18;16.20;99.90
1277;DHT22;631;51.024;13.826;2023-03-31T15:03:48;16.60;99.50
1277;DHT22;631;51.024;13.826;2023-03-31T15:06:15;17.30;97.40
1277;DHT22;631;51.024;13.826;2023-03-31T15:08:41;17.70;95.70
1277;DHT22;631;51.024;13.826;2023-03-31T15:11:14;17.90;92.70
1277;DHT22;631;51.024;13.826;2023-03-31T15:13:48;18.50;91.60
1277;DHT22;631;51.024;13.826;2023-03-31T15:16:29;19.10;87.70
1277;DHT22;631;51.024;13.826;2023-03-31T15:18:57;19.20;85.30
1277;DHT22;631;51.024;13.826;2023-03-31T15:21:25;19.60;84.10
1277;DHT22;631;51.024;13.826;2023-03-31T15:23:54;19.40;78.80
1277;DHT22;631;51.024;13.826;2023-03-31T15:26:33;18.80;78.70
1277;DHT22;631;51.024;13.826;2023-03-31T15:29:20;18.40;80.60
1277;DHT22;631;51.024;13.826;2023-03-31T15:31:47;17.90;85.10
1277;DHT22;631;51.024;13.826;2023-03-31T15:34:21;17.20;85.40
1277;DHT22;631;51.024;13.826;2023-03-31T15:36:52;16.80;89.40
1277;DHT22;631;51.024;13.826;2023-03-31T15:39:17;16.40;91.10
1277;DHT22;631;51.024;13.826;2023-03-31T15:41:45;16.00;92.20
1277;DHT22;631;51.024;13.826;2023-03-31T15:47:15;15.50;94.40
1277;DHT22;631;51.024;13.826;2023-03-31T15:49:53;15.20;96.30
1277;DHT22;631;51.024;13.826;2023-03-31T15:52:47;15.00;97.00
1277;DHT22;631;51.024;13.826;2023-03-31T15:55:26;15.00;99.30
1277;DHT22;631;51.024;13.826;2023-03-31T15:57:54;15.00;99.30
1277;DHT22;631;51.024;13.826;2023-03-31T16:02:59;15.30;98.20
1277;DHT22;631;51.024;13.826;2023-03-31T16:08:34;15.70;97.70
1277;DHT22;631;51.024;13.826;2023-03-31T16:11:06;16.00;96.60
1277;DHT22;631;51.024;13.826;2023-03-31T16:13:37;15.80;96.60
1277;DHT22;631;51.024;13.826;2023-03-31T16:16:10;15.80;96.10
1277;DHT22;631;51.024;13.826;2023-03-31T16:18:47;16.00;95.60
1277;DHT22;631;51.024;13.826;2023-03-31T16:21:20;15.60;95.60
1277;DHT22;631;51.024;13.826;2023-03-31T16:23:52;15.40;95.60
1277;DHT22;631;51.024;13.826;2023-03-31T16:26:26;15.30;98.10
1277;DHT22;631;51.024;13.826;2023-03-31T16:28:54;15.20;97.20
1277;DHT22;631;51.024;13.826;2023-03-31T16:33:56;15.20;98.20
1277;DHT22;631;51.024;13.826;2023-03-31T16:36:22;15.10;96.60
1277;DHT22;631;51.024;13.826;2023-03-31T16:38:50;14.90;97.80
1277;DHT22;631;51.024;13.826;2023-03-31T16:41:17;14.70;98.90
1277;DHT22;631;51.024;13.826;2023-03-31T16:43:44;14.70;99.70
1277;DHT22;631;51.024;13.826;2023-03-31T16:46:10;14.70;99.00
1277;DHT22;631;51.024;13.826;2023-03-31T16:48:35;14.60;99.80
1277;DHT22;631;51.024;13.826;2023-03-31T16:51:02;14.50;99.90
1277;DHT22;631;51.024;13.826;2023-03-31T16:53:33;14.30;99.90
1277;DHT22;631;51.024;13.826;2023-03-31T16:56:00;14.00;99.90
1277;DHT22;631;51.024;13.826;2023-03-31T16:58:27;13.60;99.90
1277;DHT22;631;51.024;13.826;2023-03-31T17:00:54;13.30;99.90
1277;DHT22;631;51.024;13.826;2023-03-31T17:03:20;13.00;99.90
1277;DHT22;631;51.024;13.826;2023-03-31T17:05:48;12.70;99.90
1277;DHT22;631;51.024;13.826;2023-03-31T17:08:15;12.20;99.90
1277;DHT22;631;51.024;13.826;2023-03-31T17:10:49;12.00;99.90
1277;DHT22;631;51.024;13.826;2023-03-31T17:13:15;11.80;99.90
1277;DHT22;631;51.024;13.826;2023-03-31T17:15:40;11.60;99.90
1277;DHT22;631;51.024;13.826;2023-03-31T17:18:06;11.40;99.90
1277;DHT22;631;51.024;13.826;2023-03-31T17:20:32;11.30;99.90
1277;DHT22;631;51.024;13.826;2023-03-31T17:22:58;11.30;99.90
1277;DHT22;631;51.024;13.826;2023-03-31T17:25:24;11.20;99.90
1277;DHT22;631;51.024;13.826;2023-03-31T17:27:50;11.20;99.90
1277;DHT22;631;51.024;13.826;2023-03-31T17:30:16;11.20;99.90
1277;DHT22;631;51.024;13.826;2023-03-31T17:32:41;11.10;99.90
1277;DHT22;631;51.024;13.826;2023-03-31T17:35:07;11.00;99.90
1277;DHT22;631;51.024;13.826;2023-03-31T17:37:35;10.90;99.90
1277;DHT22;631;51.024;13.826;2023-03-31T17:40:02;10.80;99.90
1277;DHT22;631;51.024;13.826;2023-03-31T17:42:29;10.70;99.90
1277;DHT22;631;51.024;13.826;2023-03-31T17:44:55;10.60;99.90
1277;DHT22;631;51.024;13.826;2023-03-31T17:47:23;10.50;99.90
1277;DHT22;631;51.024;13.826;2023-03-31T17:49:49;10.40;99.90
1277;DHT22;631;51.024;13.826;2023-03-31T17:52:14;10.40;99.90
1277;DHT22;631;51.024;13.826;2023-03-31T17:54:40;10.30;99.90
1277;DHT22;631;51.024;13.826;2023-03-31T17:57:07;10.20;99.90
1277;DHT22;631;51.024;13.826;2023-03-31T17:59:32;10.20;99.90
1277;DHT22;631;51.024;13.826;2023-03-31T18:01:58;10.10;99.90
1277;DHT22;631;51.024;13.826;2023-03-31T18:04:25;10.10;99.90
1277;DHT22;631;51.024;13.826;2023-03-31T18:06:51;10.10;99.90
1277;DHT22;631;51.024;13.826;2023-03-31T18:09:17;10.10;99.90
1277;DHT22;631;51.024;13.826;2023-03-31T18:11:43;10.10;99.90
1277;DHT22;631;51.024;13.826;2023-03-31T18:14:08;10.10;99.90
1277;DHT22;631;51.024;13.826;2023-03-31T18:16:34;10.20;99.90
1277;DHT22;631;51.024;13.826;2023-03-31T18:19:01;10.20;99.90
1277;DHT22;631;51.024;13.826;2023-03-31T18:21:27;10.20;99.90
1277;DHT22;631;51.024;13.826;2023-03-31T18:23:52;10.20;99.90
1277;DHT22;631;51.024;13.826;2023-03-31T18:26:21;10.20;99.90
1277;DHT22;631;51.024;13.826;2023-03-31T18:28:48;10.20;99.90
1277;DHT22;631;51.024;13.826;2023-03-31T18:31:14;10.20;99.90
1277;DHT22;631;51.024;13.826;2023-03-31T18:33:40;10.10;99.90
1277;DHT22;631;51.024;13.826;2023-03-31T18:36:07;10.10;99.90
1277;DHT22;631;51.024;13.826;2023-03-31T18:38:33;10.10;99.90
1277;DHT22;631;51.024;13.826;2023-03-31T18:40:59;10.10;99.90
1277;DHT22;631;51.024;13.826;2023-03-31T18:43:26;10.10;99.90
1277;DHT22;631;51.024;13.826;2023-03-31T18:45:53;10.10;99.90
1277;DHT22;631;51.024;13.826;2023-03-31T18:48:20;10.10;99.90
1277;DHT22;631;51.024;13.826;2023-03-31T18:50:47;10.10;99.90
1277;DHT22;631;51.024;13.826;2023-03-31T18:53:13;10.10;99.90
1277;DHT22;631;51.024;13.826;2023-03-31T18:55:40;10.20;99.90
1277;DHT22;631;51.024;13.826;2023-03-31T18:58:07;10.20;99.90
1277;DHT22;631;51.024;13.826;2023-03-31T19:00:33;10.20;99.90
1277;DHT22;631;51.024;13.826;2023-03-31T19:02:59;10.20;99.90
1277;DHT22;631;51.024;13.826;2023-03-31T19:05:24;10.20;99.90
1277;DHT22;631;51.024;13.826;2023-03-31T19:07:50;10.20;99.90
1277;DHT22;631;51.024;13.826;2023-03-31T19:10:16;10.20;99.90
1277;DHT22;631;51.024;13.826;2023-03-31T19:12:46;10.30;99.90
1277;DHT22;631;51.024;13.826;2023-03-31T19:15:12;10.30;99.90
1277;DHT22;631;51.024;13.826;2023-03-31T19:17:38;10.30;99.90
1277;DHT22;631;51.024;13.826;2023-03-31T19:20:03;10.30;99.90
1277;DHT22;631;51.024;13.826;2023-03-31T19:22:30;10.40;99.90
1277;DHT22;631;51.024;13.826;2023-03-31T19:24:56;10.40;99.90
1277;DHT22;631;51.024;13.826;2023-03-31T19:27:22;10.40;99.90